Time;durP1;ratioP1;P1;durP2;ratioP2;P2;SDS_P1;SDS_P2;PMS_P1;PMS_P2;Temp;Humidity;BMP_temperature;BMP_pressure;BME280_temperature;BME280_humidity;BME280_pressure;Samples;Min_cycle;Max_cycle;Signal;HPM_P1;HPM_P2
2023/04/09 00:02:01;;;;;;;;;;;;;;;5.72;100.00;98610.84;4380415;32;19990;-79
2023/04/09 00:04:28;;;;;;;;;;;;;;;5.73;100.00;98600.59;4380470;32;20029;-79
2023/04/09 00:06:54;;;;;;;;;;;;;;;5.63;100.00;98609.28;4380206;32;19966;-79
2023/04/09 00:09:21;;;;;;;;;;;;;;;5.40;100.00;98614.69;4380209;32;20320;-79
2023/04/09 00:11:48;;;;;;;;;;;;;;;5.02;100.00;98610.06;4380317;32;20035;-79
2023/04/09 00:14:15;;;;;;;;;;;;;;;5.56;100.00;98615.38;4379977;32;19974;-79
2023/04/09 00:16:41;;;;;;;;;;;;;;;5.39;100.00;98612.16;4380312;32;20242;-79
2023/04/09 00:19:08;;;;;;;;;;;;;;;5.03;100.00;98609.22;4379767;32;19974;-79
2023/04/09 00:21:35;;;;;;;;;;;;;;;4.91;100.00;98602.53;4380025;32;20033;-79
2023/04/09 00:24:02;;;;;;;;;;;;;;;4.47;100.00;98604.69;4380318;32;19974;-79
2023/04/09 00:26:30;;;;;;;;;;;;;;;4.55;100.00;98598.63;4380300;32;20273;-79
2023/04/09 00:28:56;;;;;;;;;;;;;;;4.45;100.00;98603.84;4379888;32;19993;-79
2023/04/09 00:31:23;;;;;;;;;;;;;;;4.05;100.00;98594.00;4380209;32;20001;-79
2023/04/09 00:33:50;;;;;;;;;;;;;;;4.66;100.00;98598.53;4380201;32;20313;-79
2023/04/09 00:36:17;;;;;;;;;;;;;;;4.67;100.00;98599.37;4379814;32;20045;-79
2023/04/09 00:38:44;;;;;;;;;;;;;;;4.51;100.00;98599.53;4379979;32;20249;-79
2023/04/09 00:41:10;;;;;;;;;;;;;;;4.52;100.00;98597.81;4380145;32;19978;-79
2023/04/09 00:43:37;;;;;;;;;;;;;;;4.24;100.00;98597.22;4379835;32;19974;-79
2023/04/09 00:46:04;;;;;;;;;;;;;;;4.62;100.00;98596.88;4380102;32;19971;-79
2023/04/09 00:48:31;;;;;;;;;;;;;;;4.58;100.00;98597.78;4380091;32;19992;-79
2023/04/09 00:50:58;;;;;;;;;;;;;;;4.54;100.00;98598.66;4379626;32;19978;-79
2023/04/09 00:53:24;;;;;;;;;;;;;;;4.78;100.00;98600.94;4380071;32;20254;-79
2023/04/09 00:55:52;;;;;;;;;;;;;;;4.71;100.00;98599.34;4379617;32;19988;-79
2023/04/09 00:58:18;;;;;;;;;;;;;;;4.70;100.00;98599.34;4379905;32;19982;-79
2023/04/09 01:00:45;;;;;;;;;;;;;;;4.43;100.00;98606.41;4379922;32;19978;-79
2023/04/09 01:03:12;;;;;;;;;;;;;;;4.65;100.00;98602.78;4379504;32;19970;-79
2023/04/09 01:06:01;;;;;;;;;;;;;;;4.89;100.00;98598.28;4379999;32;20011;-79
2023/04/09 01:08:48;;;;;;;;;;;;;;;5.02;100.00;98607.53;4377175;32;19982;-79
2023/04/09 01:11:19;;;;;;;;;;;;;;;4.85;100.00;98600.03;4371508;32;19989;-79
2023/04/09 01:13:52;;;;;;;;;;;;;;;4.72;100.00;98598.47;4379918;32;19989;-79
2023/04/09 01:16:19;;;;;;;;;;;;;;;4.70;100.00;98595.09;4379675;32;19974;-79
2023/04/09 01:18:50;;;;;;;;;;;;;;;5.18;100.00;98595.38;4378262;32;20114;-79
2023/04/09 01:21:18;;;;;;;;;;;;;;;5.34;100.00;98601.16;4378661;32;19994;-79
2023/04/09 01:23:45;;;;;;;;;;;;;;;5.06;100.00;98605.75;4379381;32;19989;-79
2023/04/09 01:26:29;;;;;;;;;;;;;;;5.38;100.00;98601.09;4379604;32;19975;-79
2023/04/09 01:28:56;;;;;;;;;;;;;;;5.55;100.00;98598.31;4378430;32;19978;-79
2023/04/09 01:31:27;;;;;;;;;;;;;;;5.72;100.00;98593.78;4378313;32;19990;-79
2023/04/09 01:33:54;;;;;;;;;;;;;;;5.49;100.00;98595.81;4380366;32;19977;-79
2023/04/09 01:36:20;;;;;;;;;;;;;;;5.62;100.00;98591.37;4381300;32;19977;-79
2023/04/09 01:38:47;;;;;;;;;;;;;;;5.46;100.00;98591.59;4379805;32;20036;-79
2023/04/09 01:41:15;;;;;;;;;;;;;;;5.23;100.00;98599.59;4381472;32;19978;-79
2023/04/09 01:43:41;;;;;;;;;;;;;;;5.76;100.00;98597.16;4380333;32;20012;-79
2023/04/09 01:46:08;;;;;;;;;;;;;;;5.42;100.00;98594.22;4381038;32;19988;-79
2023/04/09 01:48:35;;;;;;;;;;;;;;;5.39;100.00;98601.94;4380092;32;19982;-79
2023/04/09 01:51:02;;;;;;;;;;;;;;;5.68;100.00;98601.53;4381330;32;19986;-79
2023/04/09 01:53:29;;;;;;;;;;;;;;;5.87;99.97;98600.41;4379829;32;19993;-79
2023/04/09 01:56:00;;;;;;;;;;;;;;;5.75;99.76;98600.59;4381259;32;19969;-79
2023/04/09 01:58:27;;;;;;;;;;;;;;;5.79;99.28;98597.94;4381214;32;19978;-79
2023/04/09 02:01:14;;;;;;;;;;;;;;;5.61;99.32;98593.09;4379693;32;19986;-79
2023/04/09 02:03:51;;;;;;;;;;;;;;;5.63;100.00;98599.03;4381256;32;19963;-79
2023/04/09 02:06:37;;;;;;;;;;;;;;;5.47;100.00;98600.13;4380922;32;20013;-79
2023/04/09 02:09:04;;;;;;;;;;;;;;;5.05;100.00;98601.50;4380833;32;19982;-79
2023/04/09 02:11:30;;;;;;;;;;;;;;;4.94;100.00;98596.53;4380135;32;20016;-79
2023/04/09 02:13:57;;;;;;;;;;;;;;;4.87;100.00;98598.28;4380809;32;19978;-79
2023/04/09 02:16:24;;;;;;;;;;;;;;;4.84;100.00;98597.50;4381042;32;20016;-79
2023/04/09 02:18:55;;;;;;;;;;;;;;;4.82;100.00;98597.50;4379817;32;19982;-79
2023/04/09 02:21:22;;;;;;;;;;;;;;;5.03;100.00;98601.53;4379576;32;19998;-79
2023/04/09 02:23:49;;;;;;;;;;;;;;;4.90;100.00;98598.28;4381121;32;20028;-79
2023/04/09 02:26:16;;;;;;;;;;;;;;;5.08;100.00;98591.25;4381076;32;19974;-79
2023/04/09 02:28:42;;;;;;;;;;;;;;;4.92;100.00;98591.44;4380618;32;19993;-79
2023/04/09 02:31:10;;;;;;;;;;;;;;;4.52;100.00;98590.16;4381009;32;19986;-79
2023/04/09 02:33:37;;;;;;;;;;;;;;;4.95;100.00;98587.97;4381063;32;19986;-79
2023/04/09 02:36:04;;;;;;;;;;;;;;;5.18;99.59;98588.53;4380660;32;20344;-79
2023/04/09 02:38:31;;;;;;;;;;;;;;;4.93;99.98;98589.72;4381028;32;19974;-79
2023/04/09 02:40:57;;;;;;;;;;;;;;;4.59;100.00;98584.13;4380657;32;20290;-79
2023/04/09 02:43:24;;;;;;;;;;;;;;;5.07;100.00;98582.72;4380804;32;19978;-79
2023/04/09 02:45:51;;;;;;;;;;;;;;;5.23;99.05;98584.22;4380992;32;20032;-79
2023/04/09 02:48:17;;;;;;;;;;;;;;;5.39;97.42;98578.91;4380537;32;20383;-79
2023/04/09 02:50:44;;;;;;;;;;;;;;;4.78;100.00;98575.37;4380958;32;19974;-79
2023/04/09 02:53:11;;;;;;;;;;;;;;;4.90;99.40;98577.81;4380898;32;19989;-79
2023/04/09 02:55:37;;;;;;;;;;;;;;;5.08;98.57;98579.28;4380520;32;19975;-79
2023/04/09 02:58:04;;;;;;;;;;;;;;;5.38;97.60;98583.19;4380853;32;20049;-79
2023/04/09 03:00:31;;;;;;;;;;;;;;;5.43;96.94;98591.66;4380884;32;20482;-79
2023/04/09 03:02:57;;;;;;;;;;;;;;;5.79;94.86;98581.75;4380492;32;19974;-79
2023/04/09 03:05:24;;;;;;;;;;;;;;;6.31;90.45;98574.09;4380811;32;19966;-79
2023/04/09 03:07:52;;;;;;;;;;;;;;;6.12;89.93;98579.56;4380454;32;19974;-79
2023/04/09 03:10:19;;;;;;;;;;;;;;;6.36;86.58;98582.53;4380353;32;19978;-79
2023/04/09 03:12:46;;;;;;;;;;;;;;;6.36;85.83;98579.12;4380858;32;19988;-79
2023/04/09 03:15:13;;;;;;;;;;;;;;;6.37;86.00;98583.37;4380817;32;20004;-79
2023/04/09 03:17:40;;;;;;;;;;;;;;;5.89;89.42;98585.00;4380248;32;20387;-79
2023/04/09 03:20:07;;;;;;;;;;;;;;;6.04;89.09;98587.34;4380603;32;20036;-79
2023/04/09 03:22:37;;;;;;;;;;;;;;;6.08;88.68;98587.31;4380690;32;19974;-79
2023/04/09 03:25:04;;;;;;;;;;;;;;;5.70;92.22;98577.59;4380482;32;19971;-79
2023/04/09 03:27:31;;;;;;;;;;;;;;;5.86;91.01;98588.47;4380707;32;19992;-79
2023/04/09 03:29:58;;;;;;;;;;;;;;;6.20;89.18;98580.28;4380327;32;20005;-79
2023/04/09 03:32:24;;;;;;;;;;;;;;;6.25;88.61;98584.44;4380550;32;19970;-79
2023/04/09 03:34:51;;;;;;;;;;;;;;;6.20;87.58;98583.69;4380654;32;20031;-79
2023/04/09 03:37:18;;;;;;;;;;;;;;;6.12;86.95;98590.66;4380149;32;20004;-79
2023/04/09 03:39:44;;;;;;;;;;;;;;;5.99;87.55;98590.00;4380362;32;19996;-79
2023/04/09 03:42:11;;;;;;;;;;;;;;;5.87;86.57;98587.59;4380721;32;20013;-79
2023/04/09 03:44:38;;;;;;;;;;;;;;;5.84;86.65;98584.22;4380307;32;20317;-79
2023/04/09 03:47:05;;;;;;;;;;;;;;;5.86;85.19;98587.62;4379498;32;19986;-79
2023/04/09 03:49:33;;;;;;;;;;;;;;;6.09;82.83;98585.59;4380359;32;20028;-79
2023/04/09 03:52:00;;;;;;;;;;;;;;;6.00;83.08;98586.56;4380214;32;20330;-79
2023/04/09 03:54:30;;;;;;;;;;;;;;;5.50;85.98;98598.37;4379866;32;19981;-79
2023/04/09 03:56:56;;;;;;;;;;;;;;;5.31;87.29;98590.94;4380372;32;19985;-79
2023/04/09 03:59:23;;;;;;;;;;;;;;;5.15;88.43;98595.41;4379872;32;19997;-79
2023/04/09 04:01:50;;;;;;;;;;;;;;;5.34;88.05;98594.34;4380578;32;19974;-79
2023/04/09 04:04:17;;;;;;;;;;;;;;;5.44;87.68;98595.91;4380482;32;19980;-79
2023/04/09 04:06:47;;;;;;;;;;;;;;;5.84;84.31;98595.31;4380173;32;20024;-79
2023/04/09 04:09:14;;;;;;;;;;;;;;;5.91;82.28;98596.94;4379966;32;19978;-79
2023/04/09 04:11:40;;;;;;;;;;;;;;;5.82;81.76;98605.59;4379281;32;20257;-79
2023/04/09 04:14:07;;;;;;;;;;;;;;;5.39;83.26;98601.94;4380207;32;20242;-79
2023/04/09 04:16:34;;;;;;;;;;;;;;;4.71;86.33;98608.72;4380307;32;19993;-79
2023/04/09 04:19:01;;;;;;;;;;;;;;;4.71;86.66;98608.72;4380340;32;19978;-79
2023/04/09 04:21:27;;;;;;;;;;;;;;;4.45;87.93;98609.81;4379941;32;19979;-79
2023/04/09 04:23:54;;;;;;;;;;;;;;;4.54;88.06;98608.88;4380366;32;19970;-79
2023/04/09 04:26:21;;;;;;;;;;;;;;;4.81;87.55;98613.72;4379992;32;19978;-79
2023/04/09 04:28:47;;;;;;;;;;;;;;;4.77;87.97;98606.91;4380248;32;20028;-79
2023/04/09 04:31:14;;;;;;;;;;;;;;;4.82;87.63;98612.00;4380328;32;20036;-79
2023/04/09 04:33:41;;;;;;;;;;;;;;;4.20;90.36;98616.00;4379901;32;20045;-79
2023/04/09 04:36:11;;;;;;;;;;;;;;;4.42;89.71;98603.88;4380149;32;20325;-79
2023/04/09 04:38:38;;;;;;;;;;;;;;;4.23;90.95;98603.19;4380042;32;19978;-79
2023/04/09 04:41:04;;;;;;;;;;;;;;;4.50;89.33;98609.78;4378632;32;19973;-79
2023/04/09 04:43:31;;;;;;;;;;;;;;;4.41;89.60;98607.31;4380171;32;20543;-79
2023/04/09 04:45:58;;;;;;;;;;;;;;;4.13;92.11;98609.22;4378920;32;19978;-79
2023/04/09 04:48:26;;;;;;;;;;;;;;;4.19;92.05;98611.75;4379625;32;19982;-79
2023/04/09 04:50:57;;;;;;;;;;;;;;;4.26;92.70;98613.41;4380111;32;20024;-79
2023/04/09 04:53:24;;;;;;;;;;;;;;;4.49;91.71;98618.31;4380163;32;19985;-79
2023/04/09 04:55:50;;;;;;;;;;;;;;;4.40;92.58;98620.94;4379674;32;19986;-79
2023/04/09 04:58:17;;;;;;;;;;;;;;;4.74;90.77;98622.31;4379885;32;19993;-79
2023/04/09 05:00:44;;;;;;;;;;;;;;;4.61;92.64;98624.13;4379983;32;19974;-79
2023/04/09 05:03:11;;;;;;;;;;;;;;;4.99;90.07;98622.88;4379657;32;19988;-79
2023/04/09 05:05:38;;;;;;;;;;;;;;;5.01;89.96;98626.28;4379207;32;19975;-79
2023/04/09 05:08:04;;;;;;;;;;;;;;;4.89;91.50;98624.72;4379175;32;20010;-79
2023/04/09 05:10:31;;;;;;;;;;;;;;;5.05;91.08;98633.06;4379429;32;19988;-79
2023/04/09 05:12:58;;;;;;;;;;;;;;;5.06;91.90;98626.22;4379936;32;20320;-79
2023/04/09 05:15:25;;;;;;;;;;;;;;;5.08;91.89;98629.59;4379574;32;20411;-79
2023/04/09 05:17:52;;;;;;;;;;;;;;;5.06;93.03;98626.22;4379605;32;19978;-79
2023/04/09 05:20:18;;;;;;;;;;;;;;;5.17;93.40;98630.34;4379644;32;19988;-79
2023/04/09 05:22:45;;;;;;;;;;;;;;;5.19;94.50;98626.06;4379364;32;19966;-79
2023/04/09 05:25:14;;;;;;;;;;;;;;;5.43;94.63;98630.03;4379695;32;19978;-79
2023/04/09 05:27:41;;;;;;;;;;;;;;;5.78;93.07;98629.56;4379780;32;20030;-79
2023/04/09 05:30:08;;;;;;;;;;;;;;;5.81;95.15;98631.22;4379126;32;19986;-79
2023/04/09 05:32:35;;;;;;;;;;;;;;;5.96;96.59;98630.19;4379569;32;20318;-79
2023/04/09 05:35:02;;;;;;;;;;;;;;;6.31;100.00;98632.19;4379535;32;19974;-79
2023/04/09 05:37:29;;;;;;;;;;;;;;;6.65;100.00;98633.31;4379132;32;19974;-79
2023/04/09 05:39:56;;;;;;;;;;;;;;;7.01;100.00;98638.63;4379411;32;19988;-79
2023/04/09 05:42:22;;;;;;;;;;;;;;;8.59;100.00;98641.16;4379472;32;19970;-79
2023/04/09 05:44:49;;;;;;;;;;;;;;;9.83;86.86;98642.00;4379116;32;19974;-79
2023/04/09 05:47:16;;;;;;;;;;;;;;;11.13;75.26;98642.91;4379428;32;19997;-80
2023/04/09 05:49:43;;;;;;;;;;;;;;;11.45;69.40;98644.31;4379242;32;19970;-80
2023/04/09 05:52:09;;;;;;;;;;;;;;;11.40;68.25;98648.00;4379036;32;19978;-80
2023/04/09 05:54:36;;;;;;;;;;;;;;;11.76;66.39;98646.59;4379292;32;19992;-80
2023/04/09 05:57:03;;;;;;;;;;;;;;;11.85;65.80;98651.47;4379194;32;19978;-80
2023/04/09 05:59:30;;;;;;;;;;;;;;;12.31;61.19;98651.41;4378708;32;19997;-80
2023/04/09 06:01:56;;;;;;;;;;;;;;;12.19;60.82;98649.31;4379145;32;19981;-80
2023/04/09 06:04:23;;;;;;;;;;;;;;;12.25;60.44;98651.66;4378808;32;20037;-80
2023/04/09 06:06:50;;;;;;;;;;;;;;;12.29;59.66;98655.81;4379205;32;19978;-80
2023/04/09 06:09:17;;;;;;;;;;;;;;;12.30;60.13;98657.47;4378715;32;19971;-80
2023/04/09 06:11:44;;;;;;;;;;;;;;;12.43;58.75;98656.06;4377608;32;19966;-79
2023/04/09 06:14:16;;;;;;;;;;;;;;;13.19;58.13;98660.69;4378928;32;19978;-80
2023/04/09 06:16:43;;;;;;;;;;;;;;;13.65;56.25;98666.41;4379018;32;19986;-80
2023/04/09 06:19:11;;;;;;;;;;;;;;;13.25;55.28;98664.75;4380344;32;19974;-80
2023/04/09 06:21:39;;;;;;;;;;;;;;;13.58;55.05;98660.66;4381110;32;20045;-80
2023/04/09 06:24:06;;;;;;;;;;;;;;;13.81;54.63;98661.34;4381036;32;20345;-80
2023/04/09 06:26:33;;;;;;;;;;;;;;;14.14;52.80;98665.00;4380810;32;19982;-80
2023/04/09 06:28:59;;;;;;;;;;;;;;;13.03;55.08;98660.47;4381073;32;19970;-80
2023/04/09 06:31:26;;;;;;;;;;;;;;;12.48;57.36;98659.34;4381021;32;20372;-80
2023/04/09 06:33:53;;;;;;;;;;;;;;;10.97;62.63;98660.69;4380729;32;19988;-80
2023/04/09 06:36:20;;;;;;;;;;;;;;;11.25;62.98;98659.69;4381077;32;19982;-80
2023/04/09 06:38:47;;;;;;;;;;;;;;;10.30;66.65;98655.16;4380936;32;20029;-80
2023/04/09 06:41:14;;;;;;;;;;;;;;;10.57;67.77;98665.50;4380610;32;19966;-80
2023/04/09 06:43:41;;;;;;;;;;;;;;;10.39;70.33;98664.34;4380992;32;20280;-79
2023/04/09 06:46:08;;;;;;;;;;;;;;;9.95;73.20;98660.56;4381004;32;20036;-80
2023/04/09 06:48:35;;;;;;;;;;;;;;;9.44;69.98;98667.19;4380523;32;20314;-79
2023/04/09 06:51:01;;;;;;;;;;;;;;;8.88;73.32;98655.84;4380862;32;20326;-80
2023/04/09 06:53:28;;;;;;;;;;;;;;;8.63;76.35;98664.22;4380621;32;19979;-79
2023/04/09 06:55:55;;;;;;;;;;;;;;;9.12;74.00;98667.22;4380910;32;20050;-79
2023/04/09 06:58:22;;;;;;;;;;;;;;;9.31;75.48;98670.16;4380752;32;19966;-80
2023/04/09 07:00:49;;;;;;;;;;;;;;;8.70;73.20;98670.88;4380468;32;19967;-80
2023/04/09 07:03:16;;;;;;;;;;;;;;;9.00;73.20;98670.97;4380828;32;19978;-80
2023/04/09 07:05:43;;;;;;;;;;;;;;;9.65;71.73;98678.59;4380866;32;19993;-79
2023/04/09 07:08:10;;;;;;;;;;;;;;;10.13;67.16;98675.47;4380260;32;20380;-80
2023/04/09 07:10:37;;;;;;;;;;;;;;;10.56;66.56;98674.13;4380727;32;19986;-80
2023/04/09 07:13:04;;;;;;;;;;;;;;;10.27;70.38;98667.31;4380615;32;20122;-80
2023/04/09 07:15:30;;;;;;;;;;;;;;;10.66;62.34;98668.63;4380478;32;19977;-79
2023/04/09 07:17:58;;;;;;;;;;;;;;;10.33;63.64;98667.13;4380573;32;20454;-79
2023/04/09 07:20:25;;;;;;;;;;;;;;;9.75;67.33;98674.03;4379670;32;19974;-80
2023/04/09 07:22:52;;;;;;;;;;;;;;;10.00;65.48;98679.31;4380443;32;19982;-80
2023/04/09 07:25:20;;;;;;;;;;;;;;;9.35;67.00;98682.03;4380698;32;20086;-80
2023/04/09 07:27:46;;;;;;;;;;;;;;;9.61;67.97;98677.00;4380783;32;19982;-80
2023/04/09 07:30:13;;;;;;;;;;;;;;;8.90;70.85;98672.09;4379348;32;19981;-80
2023/04/09 07:32:40;;;;;;;;;;;;;;;9.66;66.41;98689.75;4380662;32;19978;-80
2023/04/09 07:35:08;;;;;;;;;;;;;;;10.07;64.94;98678.22;4380693;32;20337;-80
2023/04/09 07:37:35;;;;;;;;;;;;;;;9.03;70.08;98677.75;4380188;32;20302;-79
2023/04/09 07:40:05;;;;;;;;;;;;;;;8.75;69.74;98680.22;4380572;32;19970;-80
2023/04/09 07:42:32;;;;;;;;;;;;;;;8.72;71.43;98680.28;4380719;32;20036;-80
2023/04/09 07:44:59;;;;;;;;;;;;;;;9.71;66.24;98682.75;4380848;32;19978;-80
2023/04/09 07:47:27;;;;;;;;;;;;;;;10.69;64.28;98681.41;4380571;32;19974;-80
2023/04/09 07:49:54;;;;;;;;;;;;;;;10.84;61.40;98677.47;4380188;32;20000;-80
2023/04/09 07:52:20;;;;;;;;;;;;;;;11.48;59.49;98684.69;4380529;32;19993;-80
2023/04/09 07:54:47;;;;;;;;;;;;;;;11.56;58.54;98678.34;4380539;32;20375;-80
2023/04/09 07:57:14;;;;;;;;;;;;;;;11.78;57.60;98693.91;4380139;32;19970;-80
2023/04/09 07:59:41;;;;;;;;;;;;;;;11.10;58.50;98686.91;4380306;32;19962;-80
2023/04/09 08:02:07;;;;;;;;;;;;;;;11.67;58.39;98687.47;4380478;32;20262;-80
2023/04/09 08:04:35;;;;;;;;;;;;;;;10.88;63.18;98683.37;4380152;32;20029;-80
2023/04/09 08:07:02;;;;;;;;;;;;;;;11.22;61.52;98683.91;4380413;32;20049;-80
2023/04/09 08:09:28;;;;;;;;;;;;;;;11.36;60.84;98691.16;4380051;32;19971;-80
2023/04/09 08:11:56;;;;;;;;;;;;;;;11.52;59.07;98694.03;4380017;32;20029;-80
2023/04/09 08:14:22;;;;;;;;;;;;;;;11.03;59.54;98690.59;4380543;32;19997;-80
2023/04/09 08:16:50;;;;;;;;;;;;;;;11.10;58.76;98694.66;4380415;32;20310;-80
2023/04/09 08:19:18;;;;;;;;;;;;;;;10.92;61.65;98701.28;4378564;32;19970;-80
2023/04/09 08:21:47;;;;;;;;;;;;;;;11.39;58.39;98697.97;4380628;32;19990;-80
2023/04/09 08:24:14;;;;;;;;;;;;;;;10.84;60.16;98698.13;4380362;32;19978;-80
2023/04/09 08:26:41;;;;;;;;;;;;;;;9.88;63.72;98705.44;4379960;32;19992;-80
2023/04/09 08:29:09;;;;;;;;;;;;;;;9.85;65.44;98714.94;4380168;32;20431;-80
2023/04/09 08:31:36;;;;;;;;;;;;;;;10.19;63.34;98715.66;4380411;32;19994;-80
2023/04/09 08:34:03;;;;;;;;;;;;;;;9.83;65.77;98711.56;4379959;32;19978;-80
2023/04/09 08:36:31;;;;;;;;;;;;;;;9.77;63.60;98721.22;4380283;32;20032;-80
2023/04/09 08:38:59;;;;;;;;;;;;;;;10.07;63.96;98716.88;4379736;32;19969;-80
2023/04/09 08:41:29;;;;;;;;;;;;;;;9.83;65.45;98719.31;4379983;32;19996;-80
2023/04/09 08:43:56;;;;;;;;;;;;;;;9.16;71.21;98712.63;4380316;32;20037;-80
2023/04/09 08:46:25;;;;;;;;;;;;;;;9.07;69.61;98723.16;4379832;32;19966;-80
2023/04/09 08:48:52;;;;;;;;;;;;;;;9.92;65.50;98732.81;4379987;32;20001;-80
2023/04/09 08:51:20;;;;;;;;;;;;;;;9.99;64.51;98724.00;4380078;32;19970;-80
2023/04/09 08:53:49;;;;;;;;;;;;;;;10.50;62.09;98713.87;4378515;32;19985;-80
2023/04/09 08:56:16;;;;;;;;;;;;;;;10.91;58.43;98730.59;4378900;32;19974;-80
2023/04/09 08:58:45;;;;;;;;;;;;;;;11.00;59.29;98726.84;4379969;32;19974;-80
2023/04/09 09:01:25;;;;;;;;;;;;;;;10.83;58.97;98732.56;4379525;32;19981;-80
2023/04/09 09:03:56;;;;;;;;;;;;;;;10.12;63.05;98731.34;4380029;32;20041;-80
2023/04/09 09:06:23;;;;;;;;;;;;;;;10.00;63.75;98730.88;4378937;32;19970;-80
2023/04/09 09:09:02;;;;;;;;;;;;;;;10.64;60.19;98740.09;4378112;32;20009;-80
2023/04/09 09:11:29;;;;;;;;;;;;;;;9.66;65.54;98739.56;4379872;32;19997;-80
2023/04/09 09:13:56;;;;;;;;;;;;;;;9.49;66.72;98734.03;4378392;32;19993;-79
2023/04/09 09:16:23;;;;;;;;;;;;;;;10.06;65.97;98741.00;4379771;32;19977;-80
2023/04/09 09:18:51;;;;;;;;;;;;;;;9.50;68.76;98736.56;4379564;32;19977;-80
2023/04/09 09:21:20;;;;;;;;;;;;;;;8.89;70.69;98739.91;4378323;32;20025;-80
2023/04/09 09:23:50;;;;;;;;;;;;;;;9.53;68.38;98740.78;4378659;32;19986;-80
2023/04/09 09:26:19;;;;;;;;;;;;;;;9.24;67.14;98744.13;4379782;32;19970;-80
2023/04/09 09:28:47;;;;;;;;;;;;;;;10.51;63.59;98740.50;4379252;32;19970;-80
2023/04/09 09:31:15;;;;;;;;;;;;;;;11.10;59.28;98730.81;4379524;32;20032;-80
2023/04/09 09:33:42;;;;;;;;;;;;;;;9.56;66.66;98733.81;4379768;32;20042;-80
2023/04/09 09:36:08;;;;;;;;;;;;;;;9.81;65.72;98740.88;4379214;32;20028;-80
2023/04/09 09:38:55;;;;;;;;;;;;;;;9.69;65.09;98734.34;4378181;32;19984;-80
2023/04/09 09:41:22;;;;;;;;;;;;;;;10.22;63.04;98741.44;4378211;32;20037;-80
2023/04/09 09:43:48;;;;;;;;;;;;;;;9.17;69.25;98745.19;4379193;32;20310;-80
2023/04/09 09:46:16;;;;;;;;;;;;;;;9.66;67.83;98742.13;4379462;32;20021;-80
2023/04/09 09:48:43;;;;;;;;;;;;;;;9.90;67.77;98738.03;4379388;32;20349;-80
2023/04/09 09:51:10;;;;;;;;;;;;;;;10.25;64.16;98742.16;4377670;32;20348;-80
2023/04/09 09:53:37;;;;;;;;;;;;;;;9.99;65.20;98742.03;4380660;32;20336;-80
2023/04/09 09:56:05;;;;;;;;;;;;;;;9.65;66.35;98737.88;4380017;32;20013;-80
2023/04/09 09:58:43;;;;;;;;;;;;;;;9.91;71.03;98744.88;4381122;32;19966;-80
2023/04/09 10:01:11;;;;;;;;;;;;;;;10.30;65.87;98735.13;4380181;32;20310;-80
2023/04/09 10:03:39;;;;;;;;;;;;;;;9.18;69.07;98734.84;4380943;32;19982;-80
2023/04/09 10:06:06;;;;;;;;;;;;;;;9.75;67.30;98738.44;4381268;32;19966;-80
2023/04/09 10:08:34;;;;;;;;;;;;;;;9.33;70.87;98738.75;4380943;32;20036;-80
2023/04/09 10:11:01;;;;;;;;;;;;;;;9.15;71.96;98739.25;4379728;32;20037;-80
2023/04/09 10:13:31;;;;;;;;;;;;;;;9.86;70.23;98739.00;4380090;32;20004;-80
2023/04/09 10:15:58;;;;;;;;;;;;;;;9.54;70.90;98738.16;4380078;32;20302;-80
2023/04/09 10:18:25;;;;;;;;;;;;;;;9.59;69.84;98734.63;4379547;32;19980;-80
2023/04/09 10:21:00;;;;;;;;;;;;;;;9.16;71.40;98738.38;4381039;32;20001;-80
2023/04/09 10:23:38;;;;;;;;;;;;;;;9.25;68.61;98731.25;4380083;32;20053;-80
2023/04/09 10:26:04;;;;;;;;;;;;;;;9.52;69.33;98741.69;4380767;32;20251;-80
2023/04/09 10:28:31;;;;;;;;;;;;;;;9.54;69.98;98743.31;4381153;32;20463;-80
2023/04/09 10:30:58;;;;;;;;;;;;;;;10.16;67.91;98742.41;4380546;32;19977;-80
2023/04/09 10:33:26;;;;;;;;;;;;;;;10.08;67.28;98739.22;4381153;32;19982;-80
2023/04/09 10:35:54;;;;;;;;;;;;;;;9.72;66.31;98730.81;4381057;32;20003;-80
2023/04/09 10:38:37;;;;;;;;;;;;;;;9.69;66.17;98738.66;4380637;32;19958;-80
2023/04/09 10:41:17;;;;;;;;;;;;;;;9.71;65.82;98737.72;4379743;32;20435;-80
2023/04/09 10:43:45;;;;;;;;;;;;;;;9.73;66.31;98737.66;4379984;32;19994;-80
2023/04/09 10:46:25;;;;;;;;;;;;;;;9.49;66.17;98732.31;4379562;32;19969;-80
2023/04/09 10:49:07;;;;;;;;;;;;;;;8.83;68.13;98725.47;4380846;32;20024;-80
2023/04/09 10:51:37;;;;;;;;;;;;;;;8.83;71.76;98730.63;4380898;32;19982;-80
2023/04/09 10:54:05;;;;;;;;;;;;;;;9.49;67.39;98732.31;4380687;32;20235;-80
2023/04/09 10:56:32;;;;;;;;;;;;;;;9.95;65.65;98725.00;4380810;32;20337;-80
2023/04/09 10:58:58;;;;;;;;;;;;;;;10.32;63.78;98730.78;4380654;32;19981;-80
2023/04/09 11:01:26;;;;;;;;;;;;;;;10.49;63.00;98719.91;4380336;32;19974;-80
2023/04/09 11:04:06;;;;;;;;;;;;;;;10.22;63.31;98733.69;4380878;32;19994;-80
2023/04/09 11:06:37;;;;;;;;;;;;;;;10.29;63.96;98727.44;4380618;32;19979;-80
2023/04/09 11:09:04;;;;;;;;;;;;;;;11.23;57.82;98716.59;4380476;32;20432;-80
2023/04/09 11:11:32;;;;;;;;;;;;;;;12.32;55.39;98721.19;4380814;32;20249;-80
2023/04/09 11:14:02;;;;;;;;;;;;;;;11.32;59.32;98719.75;4380467;32;19974;-80
2023/04/09 11:16:29;;;;;;;;;;;;;;;10.41;66.36;98717.56;4380794;32;19974;-80
2023/04/09 11:18:56;;;;;;;;;;;;;;;9.75;69.72;98726.41;4379607;32;19977;-80
2023/04/09 11:21:27;;;;;;;;;;;;;;;9.98;69.01;98723.16;4380219;32;19975;-80
2023/04/09 11:23:54;;;;;;;;;;;;;;;10.22;66.66;98724.22;4379684;32;20129;-80
2023/04/09 11:26:34;;;;;;;;;;;;;;;10.15;65.61;98717.50;4380729;32;19989;-80
2023/04/09 11:29:05;;;;;;;;;;;;;;;10.95;65.68;98711.53;4380233;32;19966;-80
2023/04/09 11:31:32;;;;;;;;;;;;;;;10.06;66.44;98713.47;4380654;32;20021;-80
2023/04/09 11:33:58;;;;;;;;;;;;;;;9.98;67.00;98725.75;4380603;32;19982;-80
2023/04/09 11:36:26;;;;;;;;;;;;;;;9.26;67.85;98722.63;4380373;32;20309;-80
2023/04/09 11:38:54;;;;;;;;;;;;;;;9.30;68.00;98713.09;4379440;32;20325;-80
2023/04/09 11:41:36;;;;;;;;;;;;;;;10.15;66.52;98725.25;4379057;32;19974;-80
2023/04/09 11:44:03;;;;;;;;;;;;;;;9.90;65.03;98720.00;4379464;32;20005;-80
2023/04/09 11:46:36;;;;;;;;;;;;;;;9.62;65.33;98726.81;4380518;32;19989;-80
2023/04/09 11:49:03;;;;;;;;;;;;;;;9.53;67.02;98728.75;4380132;32;19985;-77
2023/04/09 11:51:30;;;;;;;;;;;;;;;9.21;68.93;98724.47;4380654;32;19982;-79
2023/04/09 11:54:01;;;;;;;;;;;;;;;9.21;67.80;98724.47;4379448;32;20316;-79
2023/04/09 11:56:28;;;;;;;;;;;;;;;9.33;68.69;98725.88;4380232;32;19970;-78
2023/04/09 11:58:54;;;;;;;;;;;;;;;8.95;68.59;98719.16;4379174;32;19963;-79
2023/04/09 12:01:21;;;;;;;;;;;;;;;9.22;66.99;98726.16;4380419;32;20032;-79
2023/04/09 12:03:54;;;;;;;;;;;;;;;8.88;68.34;98722.78;4379015;32;20044;-78
2023/04/09 12:06:23;;;;;;;;;;;;;;;9.36;67.93;98725.81;4379418;32;19977;-79
2023/04/09 12:08:53;;;;;;;;;;;;;;;9.69;67.38;98733.50;4380100;32;20297;-79
2023/04/09 12:11:19;;;;;;;;;;;;;;;9.86;61.66;98728.69;4379953;32;20022;-78
2023/04/09 12:13:46;;;;;;;;;;;;;;;9.22;67.83;98727.87;4380390;32;19986;-79
2023/04/09 12:16:13;;;;;;;;;;;;;;;8.97;68.76;98731.09;4379591;32;19974;-78
2023/04/09 12:18:40;;;;;;;;;;;;;;;9.06;69.47;98734.34;4380159;32;19980;-79
2023/04/09 12:21:07;;;;;;;;;;;;;;;9.10;68.07;98725.63;4380383;32;19983;-79
2023/04/09 12:23:34;;;;;;;;;;;;;;;9.18;68.53;98726.28;4380088;32;20000;-79
2023/04/09 12:26:01;;;;;;;;;;;;;;;9.23;70.71;98727.00;4380446;32;20310;-79
2023/04/09 12:28:27;;;;;;;;;;;;;;;8.92;71.15;98727.78;4380320;32;19981;-78
2023/04/09 12:30:55;;;;;;;;;;;;;;;9.04;70.75;98725.78;4379882;32;20017;-79
2023/04/09 12:33:21;;;;;;;;;;;;;;;9.07;70.30;98723.16;4380287;32;20001;-79
2023/04/09 12:35:48;;;;;;;;;;;;;;;8.88;69.97;98730.50;4380347;32;20059;-79
2023/04/09 12:38:15;;;;;;;;;;;;;;;8.94;70.49;98726.03;4379702;32;20033;-78
2023/04/09 12:40:42;;;;;;;;;;;;;;;8.80;71.04;98722.09;4380248;32;20040;-79
2023/04/09 12:43:08;;;;;;;;;;;;;;;8.81;73.31;98723.78;4380243;32;20054;-79
2023/04/09 12:45:35;;;;;;;;;;;;;;;8.80;71.17;98732.41;4379758;32;19993;-78
2023/04/09 12:48:02;;;;;;;;;;;;;;;9.13;67.36;98721.25;4378985;32;20045;-79
2023/04/09 12:50:29;;;;;;;;;;;;;;;8.55;70.31;98725.28;4380159;32;19978;-78
2023/04/09 12:52:56;;;;;;;;;;;;;;;8.64;71.08;98719.91;4378688;32;19990;-78
2023/04/09 12:55:22;;;;;;;;;;;;;;;8.60;72.80;98720.00;4380118;32;20049;-79
2023/04/09 12:57:49;;;;;;;;;;;;;;;8.47;73.20;98722.03;4380073;32;20328;-78